createdAt,value
2022-10-13T00:00:16.914Z,101388.09
2022-10-13T00:05:19.239Z,101382.50
2022-10-13T00:10:21.028Z,101377.63
2022-10-13T00:15:26.141Z,101379.88
2022-10-13T00:20:27.936Z,101367.94
2022-10-13T00:25:29.705Z,101361.88
2022-10-13T00:30:35.135Z,101369.84
2022-10-13T00:35:45.412Z,101354.47
2022-10-13T00:40:55.522Z,101348.28
2022-10-13T00:45:57.323Z,101352.00
2022-10-13T00:50:59.201Z,101353.53
2022-10-13T00:56:01.416Z,101349.78
2022-10-13T01:01:04.756Z,101341.75
2022-10-13T01:06:08.335Z,101350.94
2022-10-13T01:11:32.156Z,101333.03
2022-10-13T01:16:55.725Z,101329.63
2022-10-13T01:22:09.603Z,101326.38
2022-10-13T01:27:20.140Z,101315.44
2022-10-13T01:32:38.969Z,101315.28
2022-10-13T01:38:08.217Z,101309.50
2022-10-13T01:43:25.353Z,101313.66
2022-10-13T01:48:28.831Z,101311.84
2022-10-13T01:53:31.108Z,101305.94
2022-10-13T01:58:35.874Z,101310.47
2022-10-13T02:04:06.711Z,101303.50
2022-10-13T02:09:21.403Z,101304.97
2022-10-13T02:14:30.314Z,101304.28
2022-10-13T02:19:36.342Z,101303.38
2022-10-13T02:24:38.372Z,101292.50
2022-10-13T02:29:54.108Z,101288.03
2022-10-13T02:34:56.046Z,101276.50
2022-10-13T02:39:57.942Z,101277.53
2022-10-13T02:44:59.858Z,101266.56
2022-10-13T02:50:01.823Z,101259.47
2022-10-13T02:55:04.177Z,101242.47
2022-10-13T03:00:07.457Z,101250.97
2022-10-13T03:05:10.002Z,101252.44
2022-10-13T03:10:12.157Z,101241.47
2022-10-13T03:15:14.335Z,101249.72
2022-10-13T03:20:16.504Z,101250.00
2022-10-13T03:25:18.364Z,101247.50
2022-10-13T03:30:20.251Z,101256.28
2022-10-13T03:35:22.009Z,101252.56
2022-10-13T03:40:25.026Z,101244.63
2022-10-13T03:45:27.105Z,101224.16
2022-10-13T03:50:29.158Z,101247.06
2022-10-13T03:55:30.970Z,101235.63
2022-10-13T04:00:32.813Z,101231.00
2022-10-13T04:05:35.035Z,101238.22
2022-10-13T04:10:37.093Z,101230.28
2022-10-13T04:15:40.219Z,101231.38
2022-10-13T04:20:42.007Z,101232.63
2022-10-13T04:25:43.959Z,101230.44
2022-10-13T04:30:49.407Z,101224.34
2022-10-13T04:35:52.196Z,101219.00
2022-10-13T04:40:54.042Z,101218.63
2022-10-13T04:46:05.775Z,101212.16
2022-10-13T04:51:10.765Z,101202.75
2022-10-13T04:56:15.925Z,101199.28
2022-10-13T05:01:22.653Z,101188.63
2022-10-13T05:06:30.418Z,101191.13
2022-10-13T05:11:32.555Z,101184.16
2022-10-13T05:16:34.813Z,101188.06
2022-10-13T05:21:36.680Z,101179.63
2022-10-13T05:26:38.780Z,101180.88
2022-10-13T05:31:41.463Z,101180.09
2022-10-13T05:36:43.350Z,101173.44
2022-10-13T05:41:45.214Z,101176.34
2022-10-13T05:46:47.186Z,101162.13
2022-10-13T05:51:55.734Z,101160.72
2022-10-13T05:57:04.947Z,101162.59
2022-10-13T06:02:09.323Z,101170.00
2022-10-13T06:07:12.469Z,101161.34
2022-10-13T06:12:14.829Z,101153.59
2022-10-13T06:17:16.633Z,101154.00
2022-10-13T06:22:19.020Z,101161.41
2022-10-13T06:27:20.941Z,101149.97
2022-10-13T06:32:23.130Z,101146.34
2022-10-13T06:37:27.479Z,101146.50
2022-10-13T06:42:31.974Z,101143.75
2022-10-13T06:47:33.836Z,101149.06
2022-10-13T06:52:35.608Z,101147.06
2022-10-13T06:57:37.547Z,101156.13
2022-10-13T07:02:39.839Z,101162.19
2022-10-13T07:07:41.941Z,101166.19
2022-10-13T07:12:43.920Z,101166.53
2022-10-13T07:17:45.795Z,101171.41
2022-10-13T07:22:48.110Z,101173.03
2022-10-13T07:27:50.356Z,101172.06
2022-10-13T07:32:52.566Z,101168.50
2022-10-13T07:37:54.418Z,101181.69
2022-10-13T07:42:57.416Z,101171.56
2022-10-13T07:47:59.440Z,101168.13
2022-10-13T07:53:01.486Z,101166.94
2022-10-13T07:58:03.892Z,101168.81
2022-10-13T08:03:05.859Z,101162.13
2022-10-13T08:08:07.824Z,101163.34
2022-10-13T08:13:11.369Z,101170.06
2022-10-13T08:18:14.887Z,101167.19
2022-10-13T08:23:16.943Z,101162.31
2022-10-13T08:28:21.165Z,101147.84
2022-10-13T08:33:23.301Z,101154.09
2022-10-13T08:38:25.802Z,101146.81
2022-10-13T08:43:28.315Z,101151.38
2022-10-13T08:48:33.632Z,101148.53
2022-10-13T08:53:40.125Z,101140.78
2022-10-13T08:58:43.379Z,101145.13
2022-10-13T09:04:22.620Z,101142.88
2022-10-13T09:09:24.918Z,101135.31
2022-10-13T09:14:29.600Z,101136.47
2022-10-13T09:19:36.716Z,101139.84
2022-10-13T09:24:38.959Z,101141.72
2022-10-13T09:29:41.867Z,101138.81
2022-10-13T09:34:44.263Z,101133.31
2022-10-13T09:39:46.176Z,101131.38
2022-10-13T09:44:57.077Z,101118.72
2022-10-13T09:50:16.405Z,101116.38
2022-10-13T09:55:34.966Z,101122.84
2022-10-13T10:00:37.687Z,101123.53
2022-10-13T10:05:58.182Z,101122.75
2022-10-13T10:11:10.096Z,101115.69
2022-10-13T10:16:20.834Z,101106.84
2022-10-13T10:21:44.244Z,101102.44
2022-10-13T10:26:56.322Z,101102.44
2022-10-13T10:32:16.585Z,101097.00
2022-10-13T10:37:28.294Z,101097.00
2022-10-13T10:43:34.861Z,101106.84
2022-10-13T10:48:39.503Z,101094.81
2022-10-13T10:54:04.338Z,101088.59
2022-10-13T10:59:43.035Z,101083.19
2022-10-13T11:04:50.101Z,101066.97
2022-10-13T11:09:57.519Z,101053.03
2022-10-13T11:15:14.594Z,101052.88
2022-10-13T11:20:20.131Z,101058.63
2022-10-13T11:25:37.501Z,101053.66
2022-10-13T11:30:53.011Z,101046.94
2022-10-13T11:35:55.163Z,101037.78
2022-10-13T11:41:25.408Z,101033.44
2022-10-13T11:46:31.858Z,101031.03
2022-10-13T11:51:52.224Z,101027.97
2022-10-13T11:56:57.193Z,101029.84
2022-10-13T12:02:06.261Z,101024.13
2022-10-13T12:07:11.064Z,101018.34
2022-10-13T12:12:19.054Z,101014.34
2022-10-13T12:17:27.579Z,101019.28
2022-10-13T12:22:30.816Z,101006.59
2022-10-13T12:27:42.938Z,101005.34
2022-10-13T12:32:50.781Z,100999.84
2022-10-13T12:37:53.992Z,100990.69
2022-10-13T12:42:56.251Z,100989.69
2022-10-13T12:47:58.284Z,100986.19
2022-10-13T12:53:14.368Z,100985.50
2022-10-13T12:58:22.918Z,100988.69
2022-10-13T13:03:28.839Z,100986.91
2022-10-13T13:08:34.157Z,100980.56
2022-10-13T13:13:36.201Z,100975.22
2022-10-13T13:18:42.852Z,100968.63
2022-10-13T13:23:51.190Z,100966.69
2022-10-13T13:28:57.249Z,100974.25
2022-10-13T13:33:59.161Z,100961.31
2022-10-13T13:39:01.072Z,100960.59
2022-10-13T13:44:03.369Z,100956.66
2022-10-13T13:49:05.228Z,100956.72
2022-10-13T13:54:07.043Z,100956.91
2022-10-13T13:59:09.184Z,100951.97
2022-10-13T14:04:11.193Z,100947.19
2022-10-13T14:09:13.061Z,100951.41
2022-10-13T14:14:14.955Z,100959.06
2022-10-13T14:19:16.996Z,100972.72
2022-10-13T14:24:19.750Z,100973.50
2022-10-13T14:29:22.083Z,100965.66
2022-10-13T14:34:24.037Z,100969.91
2022-10-13T14:39:26.110Z,100973.59
2022-10-13T14:44:28.005Z,100963.72
2022-10-13T14:49:29.810Z,100966.06
2022-10-13T14:54:31.917Z,100967.84
2022-10-13T14:59:34.025Z,100967.31
2022-10-13T15:04:36.026Z,100957.59
2022-10-13T15:09:52.092Z,100963.41
2022-10-13T15:14:54.907Z,100953.38
2022-10-13T15:19:56.907Z,100949.88
2022-10-13T15:24:59.008Z,100946.44
2022-10-13T15:30:00.940Z,100939.75
2022-10-13T15:35:03.128Z,100940.41
2022-10-13T15:40:05.247Z,100948.97
2022-10-13T15:45:10.454Z,100945.41
2022-10-13T15:50:12.830Z,100942.66
2022-10-13T15:55:14.745Z,100941.53
2022-10-13T16:00:16.797Z,100942.47
2022-10-13T16:05:19.487Z,100939.22
2022-10-13T16:10:21.312Z,100929.34
2022-10-13T16:15:23.871Z,100927.59
2022-10-13T16:20:26.386Z,100930.44
2022-10-13T16:25:29.751Z,100928.31
2022-10-13T16:30:31.664Z,100941.44
2022-10-13T16:35:34.641Z,100941.94
2022-10-13T16:40:39.268Z,100939.34
2022-10-13T16:45:59.324Z,100936.03
2022-10-13T16:51:08.873Z,100947.88
2022-10-13T16:56:10.910Z,100948.97
2022-10-13T17:01:13.752Z,100940.31
2022-10-13T17:06:15.926Z,100954.50
2022-10-13T17:11:23.977Z,100962.09
2022-10-13T17:16:27.163Z,100967.63
2022-10-13T17:21:29.177Z,100974.94
2022-10-13T17:26:32.130Z,100978.13
2022-10-13T17:31:33.931Z,100979.00
2022-10-13T17:36:36.179Z,100992.16
2022-10-13T17:41:38.269Z,100994.38
2022-10-13T17:46:40.437Z,100994.50
2022-10-13T17:51:43.399Z,100991.91
2022-10-13T17:56:48.838Z,101000.88
2022-10-13T18:01:50.769Z,101002.34
2022-10-13T18:06:53.372Z,100996.69
2022-10-13T18:11:55.438Z,100997.56
2022-10-13T18:16:57.342Z,101006.66
2022-10-13T18:21:59.047Z,101001.34
2022-10-13T18:27:01.030Z,100993.59
2022-10-13T18:32:03.258Z,100995.03
2022-10-13T18:37:05.792Z,101005.25
2022-10-13T18:42:08.224Z,101006.47
2022-10-13T18:47:10.072Z,100994.38
2022-10-13T18:52:12.430Z,100994.13
2022-10-13T18:57:14.298Z,101001.34
2022-10-13T19:02:16.401Z,100997.72
2022-10-13T19:07:18.665Z,101012.22
2022-10-13T19:12:20.715Z,101010.34
2022-10-13T19:17:23.458Z,101003.34
2022-10-13T19:22:25.541Z,101008.31
2022-10-13T19:27:28.102Z,101002.34
2022-10-13T19:32:29.902Z,100999.91
2022-10-13T19:37:32.411Z,101016.13
2022-10-13T19:42:34.373Z,101008.38
2022-10-13T19:47:36.182Z,101003.75
2022-10-13T19:52:37.903Z,101009.56
2022-10-13T19:57:39.674Z,101017.13
2022-10-13T20:02:41.530Z,101012.31
2022-10-13T20:07:43.480Z,101000.31
2022-10-13T20:12:45.227Z,101011.81
2022-10-13T20:17:47.108Z,101005.47
2022-10-13T20:22:48.906Z,101004.59
2022-10-13T20:27:51.005Z,101010.78
2022-10-13T20:32:52.941Z,101011.03
2022-10-13T20:37:55.158Z,101009.78
2022-10-13T20:42:56.979Z,101004.69
2022-10-13T20:47:58.807Z,101000.91
2022-10-13T20:53:00.627Z,101006.22
2022-10-13T20:58:02.415Z,101008.75
2022-10-13T21:03:04.397Z,101002.72
2022-10-13T21:08:06.287Z,101005.63
2022-10-13T21:13:08.227Z,101014.22
2022-10-13T21:18:11.216Z,101005.47
2022-10-13T21:23:13.200Z,101000.31
2022-10-13T21:28:15.199Z,101002.78
2022-10-13T21:33:17.264Z,101003.69
2022-10-13T21:38:19.067Z,101000.91
2022-10-13T21:43:20.990Z,101002.41
2022-10-13T21:48:26.046Z,101006.03
2022-10-13T21:53:27.991Z,101002.00
2022-10-13T21:58:29.960Z,100996.22
2022-10-13T22:03:32.756Z,100983.75
2022-10-13T22:08:39.292Z,100983.34
2022-10-13T22:13:41.278Z,100984.06
2022-10-13T22:18:43.428Z,100991.03
2022-10-13T22:23:45.788Z,100985.88
2022-10-13T22:28:51.670Z,100987.50
2022-10-13T22:33:55.018Z,100986.34
2022-10-13T22:38:59.747Z,100979.44
2022-10-13T22:44:02.211Z,100981.25
2022-10-13T22:49:05.445Z,100982.91
2022-10-13T22:54:07.602Z,100977.63
2022-10-13T22:59:09.664Z,100962.44
2022-10-13T23:04:11.913Z,100957.03
2022-10-13T23:09:14.355Z,100958.91
2022-10-13T23:14:16.271Z,100955.28
2022-10-13T23:19:19.792Z,100955.28
2022-10-13T23:24:21.875Z,100947.47
2022-10-13T23:29:23.859Z,100949.19
2022-10-13T23:34:26.296Z,100942.28
2022-10-13T23:39:29.745Z,100940.41
2022-10-13T23:44:31.704Z,100932.28
2022-10-13T23:49:33.489Z,100929.59
2022-10-13T23:54:35.494Z,100924.53
2022-10-13T23:59:37.479Z,100921.63
